Time;durP1;ratioP1;P1;durP2;ratioP2;P2;SDS_P1;SDS_P2;PMS_P1;PMS_P2;Temp;Humidity;BMP_temperature;BMP_pressure;BME280_temperature;BME280_humidity;BME280_pressure;Samples;Min_cycle;Max_cycle;Signal;HPM_P1;HPM_P2
2022/07/16 00:01:22;;;;;;;6.53;3.47;;;16.60;99.90;;;;;;5038253;28;20108;-61
2022/07/16 00:01:48;;;;;;;4.07;2.60;;;16.70;99.90;;;;;;5042347;28;20047;-60
2022/07/16 00:04:14;;;;;;;6.13;2.72;;;16.70;99.90;;;;;;5046216;28;20020;-61
2022/07/16 00:06:39;;;;;;;3.63;2.25;;;16.80;99.90;;;;;;5039248;28;20025;-61
2022/07/16 00:09:05;;;;;;;4.78;2.70;;;16.80;99.90;;;;;;5035537;28;20036;-62
2022/07/16 00:11:31;;;;;;;8.63;2.85;;;16.80;99.90;;;;;;5035580;28;20108;-60
2022/07/16 00:13:57;;;;;;;4.47;2.50;;;16.80;99.90;;;;;;5034975;28;20426;-61
2022/07/16 00:16:22;;;;;;;5.30;2.85;;;16.80;99.90;;;;;;5033783;28;20488;-61
2022/07/16 00:21:32;;;;;;;5.20;2.80;;;16.70;99.90;;;;;;5034599;28;20334;-61
2022/07/16 00:23:57;;;;;;;4.45;2.70;;;16.80;99.90;;;;;;5040486;28;20057;-61
2022/07/16 00:26:23;;;;;;;4.47;2.90;;;16.90;99.90;;;;;;5035748;28;20131;-61
2022/07/16 00:28:48;;;;;;;5.80;2.95;;;16.90;99.90;;;;;;5033469;28;20436;-61
2022/07/16 00:31:14;;;;;;;7.18;3.15;;;16.80;99.90;;;;;;5032648;28;20056;-61
2022/07/16 00:33:40;;;;;;;7.28;2.88;;;16.80;99.90;;;;;;5036262;28;20025;-61
2022/07/16 00:36:05;;;;;;;5.32;3.17;;;16.70;99.90;;;;;;5029729;28;20036;-61
2022/07/16 00:38:32;;;;;;;6.28;2.85;;;16.60;99.90;;;;;;5032108;28;20099;-60
2022/07/16 00:40:57;;;;;;;7.93;3.42;;;16.70;99.90;;;;;;5034776;28;20047;-61
2022/07/16 00:43:23;;;;;;;5.63;3.63;;;16.60;99.90;;;;;;5039953;28;20329;-59
2022/07/16 00:45:49;;;;;;;6.10;2.88;;;16.60;99.90;;;;;;5036014;28;20032;-61
2022/07/16 00:48:15;;;;;;;13.70;4.00;;;16.70;99.90;;;;;;5033225;28;20409;-61
2022/07/16 00:50:41;;;;;;;5.10;3.15;;;16.70;99.90;;;;;;5043809;28;20025;-60
2022/07/16 00:53:09;;;;;;;4.90;3.38;;;16.70;99.90;;;;;;5032771;28;20013;-60
2022/07/16 00:55:35;;;;;;;6.75;3.42;;;16.60;99.90;;;;;;5037570;28;20044;-62
2022/07/16 00:58:01;;;;;;;6.78;3.40;;;16.60;99.90;;;;;;5035717;28;20029;-60
2022/07/16 01:00:27;;;;;;;9.27;3.80;;;16.60;99.90;;;;;;5038921;28;20478;-60
2022/07/16 01:02:53;;;;;;;7.10;3.67;;;16.70;99.90;;;;;;5034967;28;20159;-61
2022/07/16 01:05:19;;;;;;;6.72;3.50;;;16.60;99.90;;;;;;5041508;28;20032;-61
2022/07/16 01:07:45;;;;;;;5.20;3.60;;;16.60;99.90;;;;;;5043841;28;20072;-60
2022/07/16 01:10:12;;;;;;;6.43;3.50;;;16.60;99.90;;;;;;5036506;28;20032;-61
2022/07/16 01:12:38;;;;;;;5.30;3.42;;;16.50;99.90;;;;;;5044339;28;20581;-61
2022/07/16 01:15:05;;;;;;;6.38;3.63;;;16.60;99.90;;;;;;5037106;28;20028;-60
2022/07/16 01:17:31;;;;;;;6.82;3.25;;;16.50;99.90;;;;;;5036165;28;20044;-61
2022/07/16 01:19:56;;;;;;;5.45;3.50;;;16.50;99.90;;;;;;5034431;28;20435;-61
2022/07/16 01:22:24;;;;;;;9.52;3.80;;;16.50;99.90;;;;;;5045307;28;20127;-60
2022/07/16 01:24:51;;;;;;;8.18;3.75;;;16.50;99.90;;;;;;5041075;28;20095;-61
2022/07/16 01:27:18;;;;;;;9.65;3.60;;;16.60;99.90;;;;;;5037604;28;20020;-61
2022/07/16 01:29:44;;;;;;;6.25;3.90;;;16.50;99.90;;;;;;5041044;28;20068;-60
2022/07/16 01:32:10;;;;;;;5.43;3.88;;;16.60;99.90;;;;;;5040108;28;20516;-61
2022/07/16 01:34:37;;;;;;;6.65;3.60;;;16.50;99.90;;;;;;5036685;28;20115;-61
2022/07/16 01:37:05;;;;;;;7.25;3.58;;;16.60;99.90;;;;;;5037700;28;20362;-62
2022/07/16 01:39:34;;;;;;;6.97;3.83;;;16.50;99.90;;;;;;5042865;28;20037;-60
2022/07/16 01:42:02;;;;;;;8.23;3.53;;;16.60;99.90;;;;;;5036868;28;20040;-60
2022/07/16 01:44:29;;;;;;;7.32;3.53;;;16.50;99.90;;;;;;5048977;28;20733;-60
2022/07/16 01:46:56;;;;;;;9.43;4.10;;;16.50;99.90;;;;;;5044410;28;20127;-61
2022/07/16 01:49:22;;;;;;;8.27;3.97;;;16.30;99.90;;;;;;5033066;28;20029;-61
2022/07/16 01:51:48;;;;;;;5.13;3.40;;;16.50;99.90;;;;;;5041076;28;20104;-61
2022/07/16 01:54:14;;;;;;;7.28;3.90;;;16.50;99.90;;;;;;5037953;28;20137;-60
2022/07/16 01:56:40;;;;;;;7.05;4.00;;;16.40;99.90;;;;;;5040982;28;20059;-59
2022/07/16 01:59:06;;;;;;;5.40;3.50;;;16.40;99.90;;;;;;5040854;28;20025;-61
2022/07/16 02:01:32;;;;;;;7.60;3.90;;;16.30;99.90;;;;;;5037126;28;20099;-61
2022/07/16 02:03:58;;;;;;;7.13;3.78;;;16.30;99.90;;;;;;5040932;28;20029;-61
2022/07/16 02:06:23;;;;;;;6.45;4.07;;;16.40;99.90;;;;;;5041253;28;20037;-61
2022/07/16 02:08:49;;;;;;;7.88;3.80;;;16.30;99.90;;;;;;5040168;28;20036;-61
2022/07/16 02:11:15;;;;;;;6.95;3.50;;;16.30;99.90;;;;;;5037342;28;20017;-61
2022/07/16 02:13:42;;;;;;;4.63;3.15;;;16.30;99.90;;;;;;5035950;28;20108;-60
2022/07/16 02:16:08;;;;;;;7.40;3.58;;;16.30;99.90;;;;;;5041428;28;20551;-61
2022/07/16 02:18:33;;;;;;;6.00;3.20;;;16.30;99.90;;;;;;5038800;28;20040;-61
2022/07/16 02:20:59;;;;;;;5.88;3.60;;;16.30;99.90;;;;;;5043704;28;20025;-60
2022/07/16 02:23:24;;;;;;;7.85;3.45;;;16.30;99.90;;;;;;5035134;28;20079;-62
2022/07/16 02:25:50;;;;;;;5.82;3.30;;;16.40;99.90;;;;;;5047171;28;20507;-61
2022/07/16 02:28:15;;;;;;;6.63;3.35;;;16.40;99.90;;;;;;5038987;28;20037;-60
2022/07/16 02:30:43;;;;;;;6.40;3.55;;;16.40;99.90;;;;;;5040281;28;20044;-60
2022/07/16 02:33:12;;;;;;;5.07;2.90;;;16.40;99.90;;;;;;5037793;28;20034;-61
2022/07/16 02:35:38;;;;;;;7.63;3.30;;;16.50;99.90;;;;;;5038926;28;20036;-61
2022/07/16 02:38:06;;;;;;;5.60;3.33;;;16.40;99.90;;;;;;5038448;28;20040;-60
2022/07/16 02:40:34;;;;;;;5.60;3.40;;;16.40;99.90;;;;;;5040745;28;20033;-61
2022/07/16 02:43:02;;;;;;;7.40;3.55;;;16.40;99.90;;;;;;5043063;28;20094;-61
2022/07/16 02:45:28;;;;;;;4.60;3.00;;;16.50;99.90;;;;;;5040744;28;20476;-61
2022/07/16 02:47:54;;;;;;;5.75;3.58;;;16.50;99.90;;;;;;5040177;28;20017;-61
2022/07/16 02:50:20;;;;;;;8.32;3.33;;;16.60;99.90;;;;;;5040520;28;20032;-60
2022/07/16 02:52:46;;;;;;;6.45;3.35;;;16.70;99.90;;;;;;5040231;28;20028;-62
2022/07/16 02:55:11;;;;;;;5.43;3.47;;;16.70;99.90;;;;;;5041802;28;20114;-61
2022/07/16 02:57:38;;;;;;;7.88;3.40;;;16.70;99.90;;;;;;5039350;28;20025;-61
2022/07/16 03:00:06;;;;;;;5.25;3.50;;;16.80;99.90;;;;;;5039967;28;20031;-61
2022/07/16 03:02:32;;;;;;;7.28;3.50;;;16.60;99.90;;;;;;5033069;28;20615;-61
2022/07/16 03:04:57;;;;;;;4.90;3.25;;;16.70;99.90;;;;;;5040755;28;20112;-60
2022/07/16 03:07:23;;;;;;;7.80;3.47;;;16.60;99.90;;;;;;5040422;28;20068;-61
2022/07/16 03:09:49;;;;;;;7.13;3.55;;;16.50;99.90;;;;;;5038845;28;20029;-61
2022/07/16 03:12:15;;;;;;;7.43;3.85;;;16.50;99.90;;;;;;5050210;28;20041;-62
2022/07/16 03:14:40;;;;;;;5.88;3.60;;;16.60;99.90;;;;;;5033218;28;20060;-62
2022/07/16 03:17:06;;;;;;;7.32;3.67;;;16.60;99.90;;;;;;5035979;28;20448;-61
2022/07/16 03:19:34;;;;;;;7.57;3.60;;;16.60;99.90;;;;;;5030542;28;20017;-61
2022/07/16 03:22:00;;;;;;;12.38;3.67;;;16.70;99.90;;;;;;5031350;28;20036;-61
2022/07/16 03:24:25;;;;;;;9.35;3.78;;;16.80;99.90;;;;;;5040229;28;20025;-61
2022/07/16 03:26:51;;;;;;;5.28;3.45;;;16.80;99.90;;;;;;5039195;28;20083;-60
2022/07/16 03:29:16;;;;;;;7.13;3.47;;;16.80;99.90;;;;;;5039235;28;20059;-61
2022/07/16 03:31:42;;;;;;;4.53;3.10;;;16.80;99.90;;;;;;5039143;28;20024;-61
2022/07/16 03:34:09;;;;;;;12.73;4.95;;;;;;;;;;5039801;28;20590;-61
2022/07/16 03:36:34;;;;;;;7.97;3.28;;;17.20;99.90;;;;;;5036697;28;20480;-61
2022/07/16 03:39:02;;;;;;;7.25;2.95;;;17.00;99.90;;;;;;5043837;28;20122;-61
2022/07/16 03:41:27;;;;;;;7.70;3.13;;;17.00;99.90;;;;;;5037469;28;20036;-61
2022/07/16 03:43:53;;;;;;;7.45;3.65;;;16.80;99.90;;;;;;5036818;28;20029;-62
2022/07/16 03:46:19;;;;;;;6.35;3.10;;;16.90;99.90;;;;;;5039040;28;20028;-61
2022/07/16 03:48:44;;;;;;;4.28;3.13;;;16.80;99.90;;;;;;5039666;28;20039;-60
2022/07/16 03:51:11;;;;;;;4.45;2.78;;;16.90;99.90;;;;;;5043400;28;20056;-61
2022/07/16 03:53:38;;;;;;;6.00;2.70;;;16.90;99.90;;;;;;5041784;28;20071;-61
2022/07/16 03:56:04;;;;;;;4.03;2.67;;;16.80;99.90;;;;;;5037106;28;20108;-61
2022/07/16 03:58:29;;;;;;;4.70;3.03;;;16.80;99.90;;;;;;5038558;28;20033;-62
2022/07/16 04:00:55;;;;;;;5.05;2.72;;;16.80;99.90;;;;;;5041372;28;20409;-61
2022/07/16 04:03:21;;;;;;;4.90;3.00;;;16.70;99.90;;;;;;5038411;28;20616;-61
2022/07/16 04:05:47;;;;;;;4.18;3.10;;;16.90;99.90;;;;;;5048575;28;20100;-61
2022/07/16 04:08:13;;;;;;;8.70;3.10;;;16.90;99.90;;;;;;5038474;28;20037;-62
2022/07/16 04:10:38;;;;;;;5.00;3.10;;;17.00;99.90;;;;;;5033632;28;20114;-61
2022/07/16 04:13:04;;;;;;;9.00;3.30;;;17.10;99.90;;;;;;5041453;28;20033;-61
2022/07/16 04:15:30;;;;;;;6.03;3.15;;;17.20;99.90;;;;;;5030191;28;20016;-63
2022/07/16 04:17:56;;;;;;;7.82;3.53;;;17.20;99.90;;;;;;5036416;28;20324;-60
2022/07/16 04:20:21;;;;;;;6.93;3.33;;;17.20;99.90;;;;;;5035389;28;20037;-61
2022/07/16 04:22:47;;;;;;;4.20;3.30;;;17.30;99.90;;;;;;5036085;28;20067;-61
2022/07/16 04:25:13;;;;;;;7.45;3.60;;;17.50;99.90;;;;;;5042254;28;20036;-61
2022/07/16 04:27:40;;;;;;;9.55;3.70;;;17.40;99.90;;;;;;5037580;28;20324;-61
2022/07/16 04:30:07;;;;;;;10.35;3.92;;;17.40;99.90;;;;;;5038304;28;20639;-61
2022/07/16 04:32:37;;;;;;;10.15;3.63;;;17.30;99.90;;;;;;5041624;28;20133;-62
2022/07/16 04:35:03;;;;;;;8.05;3.70;;;17.30;99.90;;;;;;5039321;28;20094;-60
2022/07/16 04:37:29;;;;;;;6.80;3.60;;;17.40;99.90;;;;;;5041970;28;20025;-62
2022/07/16 04:39:54;;;;;;;7.28;3.67;;;17.30;99.90;;;;;;5038866;28;20031;-60
2022/07/16 04:42:20;;;;;;;8.63;3.28;;;17.30;99.90;;;;;;5043813;28;20436;-61
2022/07/16 04:44:46;;;;;;;8.13;3.45;;;17.50;99.90;;;;;;5040536;28;20021;-61
2022/07/16 04:47:11;;;;;;;9.63;3.55;;;17.40;99.90;;;;;;5040947;28;20031;-61
2022/07/16 04:49:37;;;;;;;8.70;3.95;;;17.40;99.90;;;;;;5035856;28;20040;-61
2022/07/16 04:52:04;;;;;;;8.20;3.65;;;17.50;99.90;;;;;;5044352;28;20090;-62
2022/07/16 04:54:29;;;;;;;7.97;3.50;;;17.50;99.90;;;;;;5050551;28;20035;-62
2022/07/16 04:56:55;;;;;;;7.35;3.65;;;17.40;99.90;;;;;;5044875;28;20021;-61
2022/07/16 04:59:20;;;;;;;5.32;3.38;;;17.40;99.90;;;;;;5045903;28;20067;-61
2022/07/16 05:01:46;;;;;;;6.97;3.88;;;17.30;99.90;;;;;;5040711;28;20036;-61
2022/07/16 05:04:12;;;;;;;8.43;3.80;;;17.30;99.90;;;;;;5040486;28;20025;-61
2022/07/16 05:06:37;;;;;;;6.82;3.63;;;17.30;99.90;;;;;;5042585;28;20461;-62
2022/07/16 05:09:03;;;;;;;6.78;3.70;;;17.40;99.90;;;;;;5041588;28;20380;-61
2022/07/16 05:11:29;;;;;;;4.28;3.15;;;17.30;99.90;;;;;;5043275;28;20021;-61
2022/07/16 05:13:55;;;;;;;8.43;3.85;;;17.50;99.90;;;;;;5040643;28;20134;-61
2022/07/16 05:16:22;;;;;;;7.60;3.50;;;17.40;99.90;;;;;;5039656;28;20033;-60
2022/07/16 05:18:48;;;;;;;5.35;3.38;;;17.40;99.90;;;;;;5036015;28;20045;-61
2022/07/16 05:21:14;;;;;;;7.43;3.53;;;17.40;99.90;;;;;;5035385;28;20460;-61
2022/07/16 05:23:39;;;;;;;9.98;4.00;;;17.40;99.90;;;;;;5039566;28;20029;-60
2022/07/16 05:26:05;;;;;;;6.90;3.55;;;17.40;99.90;;;;;;5066835;28;20407;-62
2022/07/16 05:28:31;;;;;;;7.28;3.67;;;17.50;99.90;;;;;;5041439;28;20033;-61
2022/07/16 05:30:56;;;;;;;5.35;3.90;;;17.40;99.90;;;;;;5040353;28;20021;-61
2022/07/16 05:33:22;;;;;;;5.90;3.42;;;17.50;99.90;;;;;;5040556;28;20701;-62
2022/07/16 05:35:48;;;;;;;7.70;3.58;;;17.40;99.90;;;;;;5030982;28;20445;-60
2022/07/16 05:38:13;;;;;;;10.02;4.03;;;17.50;99.90;;;;;;5038449;28;20609;-61
2022/07/16 05:40:39;;;;;;;5.68;3.60;;;17.60;99.90;;;;;;5038969;28;20364;-62
2022/07/16 05:43:06;;;;;;;8.68;3.88;;;17.50;99.90;;;;;;5045110;28;20033;-61
2022/07/16 05:45:32;;;;;;;5.82;3.72;;;17.50;99.90;;;;;;5038599;28;20024;-61
2022/07/16 05:47:58;;;;;;;8.35;3.70;;;17.60;99.90;;;;;;5037780;28;20029;-60
2022/07/16 05:50:23;;;;;;;7.82;4.38;;;17.60;99.90;;;;;;5041532;28;20456;-61
2022/07/16 05:52:49;;;;;;;7.20;4.03;;;17.50;99.90;;;;;;5037905;28;20040;-61
2022/07/16 05:55:15;;;;;;;7.95;5.00;;;17.60;99.90;;;;;;5035323;28;20012;-61
2022/07/16 05:57:41;;;;;;;9.95;4.97;;;17.50;99.90;;;;;;5040751;28;20025;-61
2022/07/16 06:00:09;;;;;;;10.43;5.00;;;17.50;99.90;;;;;;5040620;28;20184;-62
2022/07/16 06:02:35;;;;;;;7.32;4.97;;;17.50;99.90;;;;;;5037828;28;20122;-61
2022/07/16 06:05:00;;;;;;;5.97;4.93;;;17.60;99.90;;;;;;5044489;28;20114;-61
2022/07/16 06:07:26;;;;;;;10.27;6.05;;;17.80;99.90;;;;;;5040572;28;20672;-62
2022/07/16 06:09:51;;;;;;;9.07;5.45;;;17.70;99.90;;;;;;5039898;28;20483;-61
2022/07/16 06:12:17;;;;;;;8.48;6.18;;;17.90;99.90;;;;;;5039474;28;20496;-60
2022/07/16 06:14:42;;;;;;;8.95;6.32;;;17.80;99.90;;;;;;5031811;28;20447;-61
2022/07/16 06:17:08;;;;;;;8.70;6.65;;;17.80;99.90;;;;;;5037705;28;20167;-61
2022/07/16 06:19:34;;;;;;;12.90;7.03;;;17.90;99.90;;;;;;5037712;28;20104;-61
2022/07/16 06:21:59;;;;;;;9.82;6.78;;;17.80;99.90;;;;;;5037633;28;20081;-61
2022/07/16 06:24:25;;;;;;;10.27;6.70;;;17.80;99.90;;;;;;5039124;28;20044;-61
2022/07/16 06:26:50;;;;;;;10.70;6.40;;;17.80;99.90;;;;;;5040179;28;20039;-61
2022/07/16 06:29:16;;;;;;;12.25;6.85;;;18.00;99.90;;;;;;5041154;28;20051;-61
2022/07/16 06:31:43;;;;;;;11.55;6.32;;;18.10;99.90;;;;;;4999677;28;1054577;-61
2022/07/16 06:34:09;;;;;;;9.48;6.95;;;;;;;;;;5040554;28;20013;-61
2022/07/16 06:36:35;;;;;;;13.38;6.13;;;17.60;99.90;;;;;;5038782;28;20029;-61
2022/07/16 06:39:01;;;;;;;8.25;5.53;;;18.40;99.90;;;;;;5038610;28;20028;-61
2022/07/16 06:41:26;;;;;;;9.63;5.80;;;18.90;99.90;;;;;;5037619;28;20504;-62
2022/07/16 06:43:52;;;;;;;8.77;5.55;;;18.30;99.90;;;;;;5033692;28;20029;-63
2022/07/16 06:46:17;;;;;;;12.48;5.93;;;18.50;99.90;;;;;;5039003;28;20060;-62
2022/07/16 06:48:43;;;;;;;7.40;5.40;;;18.50;99.90;;;;;;5040581;28;20040;-62
2022/07/16 06:51:09;;;;;;;7.88;5.50;;;18.40;99.90;;;;;;5043956;28;20637;-62
2022/07/16 06:53:38;;;;;;;9.02;5.53;;;18.40;99.90;;;;;;5045757;28;20154;-63
2022/07/16 06:56:06;;;;;;;9.13;5.00;;;18.30;99.90;;;;;;5041026;28;20432;-63
2022/07/16 06:58:32;;;;;;;9.93;5.00;;;18.40;99.90;;;;;;5032519;28;20021;-63
2022/07/16 07:00:58;;;;;;;8.43;4.60;;;18.20;99.90;;;;;;5038608;28;20209;-63
2022/07/16 07:03:23;;;;;;;9.30;4.10;;;18.30;99.90;;;;;;5037678;28;20030;-63
2022/07/16 07:05:49;;;;;;;6.15;3.20;;;18.50;99.90;;;;;;5041732;28;20025;-64
2022/07/16 07:08:14;;;;;;;7.47;2.80;;;18.80;99.90;;;;;;5039176;28;20783;-64
2022/07/16 07:10:40;;;;;;;6.25;2.17;;;19.00;99.90;;;;;;5037594;28;20045;-63
2022/07/16 07:13:06;;;;;;;6.80;2.28;;;19.10;99.90;;;;;;5037561;28;20082;-63
2022/07/16 07:15:31;;;;;;;5.15;2.22;;;18.80;99.90;;;;;;5036975;28;20045;-64
2022/07/16 07:17:57;;;;;;;3.67;1.70;;;19.10;99.90;;;;;;5037848;28;20033;-64
2022/07/16 07:20:23;;;;;;;3.50;1.52;;;19.00;99.90;;;;;;5038763;28;20140;-64
2022/07/16 07:22:48;;;;;;;4.00;1.90;;;18.70;99.90;;;;;;5040570;28;20795;-63
2022/07/16 07:25:14;;;;;;;4.00;1.60;;;19.40;99.90;;;;;;5039333;28;20632;-63
2022/07/16 07:27:40;;;;;;;4.60;1.65;;;;;;;;;;5038600;28;20086;-64
2022/07/16 07:30:06;;;;;;;2.58;1.25;;;19.30;99.90;;;;;;5041526;28;20021;-61
2022/07/16 07:32:32;;;;;;;2.45;1.05;;;19.30;99.90;;;;;;5035773;28;20450;-61
2022/07/16 07:34:58;;;;;;;5.63;1.15;;;19.30;99.90;;;;;;5039005;28;20104;-63
2022/07/16 07:37:23;;;;;;;1.92;0.90;;;19.20;99.90;;;;;;5040766;28;20112;-63
2022/07/16 07:39:49;;;;;;;2.42;0.90;;;19.20;99.90;;;;;;5036673;28;20032;-63
2022/07/16 07:42:15;;;;;;;1.63;1.00;;;19.50;99.90;;;;;;5036732;28;20669;-66
2022/07/16 07:44:40;;;;;;;3.53;1.08;;;19.60;99.90;;;;;;5040942;28;20691;-64
2022/07/16 07:47:06;;;;;;;2.65;1.10;;;19.90;99.90;;;;;;5046015;28;20033;-65
2022/07/16 07:49:31;;;;;;;2.20;1.00;;;19.80;99.90;;;;;;5036773;28;20094;-64
2022/07/16 07:51:57;;;;;;;2.15;1.15;;;19.60;99.90;;;;;;5037726;28;20025;-66
2022/07/16 07:54:22;;;;;;;2.75;1.10;;;19.60;99.90;;;;;;5034025;28;20655;-64
2022/07/16 07:56:49;;;;;;;1.58;1.05;;;19.70;99.90;;;;;;5043710;28;20473;-66
2022/07/16 07:59:15;;;;;;;3.00;0.90;;;19.70;99.90;;;;;;5038251;28;20024;-65
2022/07/16 08:01:40;;;;;;;4.40;0.90;;;19.70;99.90;;;;;;5031857;28;20108;-63
2022/07/16 08:04:06;;;;;;;3.75;0.90;;;19.70;99.90;;;;;;5038410;28;20108;-63
2022/07/16 08:06:32;;;;;;;3.63;1.20;;;19.60;99.90;;;;;;5039804;28;20040;-64
2022/07/16 08:08:57;;;;;;;2.08;1.00;;;19.60;99.90;;;;;;5034854;28;20099;-64
2022/07/16 08:11:23;;;;;;;3.58;0.88;;;19.90;99.90;;;;;;5051294;28;20028;-64
2022/07/16 08:13:48;;;;;;;2.95;1.10;;;19.90;99.90;;;;;;5037594;28;20031;-64
2022/07/16 08:16:14;;;;;;;2.35;1.10;;;20.00;99.90;;;;;;5046477;28;20238;-64
2022/07/16 08:18:40;;;;;;;2.30;1.00;;;20.00;99.90;;;;;;5037586;28;20032;-63
2022/07/16 08:21:06;;;;;;;2.60;1.00;;;20.00;99.90;;;;;;5035087;28;20025;-64
2022/07/16 08:26:15;;;;;;;3.20;1.00;;;19.90;99.90;;;;;;5038571;28;20044;-63
2022/07/16 08:28:42;;;;;;;4.28;1.15;;;19.70;99.90;;;;;;5040315;28;20393;-64
2022/07/16 08:31:08;;;;;;;3.65;1.38;;;19.90;99.90;;;;;;5038642;28;20469;-65
2022/07/16 08:33:34;;;;;;;8.15;1.35;;;19.70;99.90;;;;;;5042491;28;20124;-65
2022/07/16 08:36:01;;;;;;;3.60;1.30;;;19.50;99.90;;;;;;5036049;28;20024;-64
2022/07/16 08:38:27;;;;;;;3.63;1.25;;;19.50;99.90;;;;;;5038431;28;20726;-64
2022/07/16 08:40:55;;;;;;;2.47;1.00;;;19.60;99.90;;;;;;5045369;28;20025;-62
2022/07/16 08:43:21;;;;;;;3.45;1.38;;;20.00;99.90;;;;;;5037650;28;20448;-63
2022/07/16 08:45:47;;;;;;;2.90;1.13;;;20.20;99.90;;;;;;5044410;28;20769;-64
2022/07/16 08:48:13;;;;;;;6.10;1.20;;;20.40;99.90;;;;;;5040866;28;20114;-62
2022/07/16 08:50:39;;;;;;;3.00;1.40;;;20.40;99.90;;;;;;5041756;28;20080;-63
2022/07/16 08:53:07;;;;;;;1.88;1.13;;;20.30;99.90;;;;;;5041752;28;20024;-62
2022/07/16 08:55:36;;;;;;;4.60;1.30;;;20.10;99.90;;;;;;5042610;28;20056;-62
2022/07/16 08:58:05;;;;;;;4.75;1.25;;;20.00;99.90;;;;;;5035714;28;20033;-62
2022/07/16 09:00:31;;;;;;;4.43;1.00;;;19.80;99.90;;;;;;5039907;28;20473;-62
2022/07/16 09:02:57;;;;;;;1.75;0.90;;;19.70;99.90;;;;;;5045974;28;20021;-62
2022/07/16 09:05:24;;;;;;;2.80;1.00;;;19.60;99.90;;;;;;5043777;28;20448;-62
2022/07/16 09:07:51;;;;;;;4.88;1.08;;;19.80;99.90;;;;;;5041293;28;20059;-62
2022/07/16 09:10:16;;;;;;;3.60;1.10;;;19.90;99.90;;;;;;5041858;28;20017;-62
2022/07/16 09:12:47;;;;;;;3.90;1.00;;;20.10;99.90;;;;;;5034949;28;20025;-62
2022/07/16 09:15:28;;;;;;;4.05;1.30;;;20.50;99.90;;;;;;5033455;28;20056;-62
2022/07/16 09:18:12;;;;;;;3.42;1.10;;;20.70;99.90;;;;;;5042101;28;20033;-63
2022/07/16 09:20:41;;;;;;;2.30;1.13;;;20.70;99.90;;;;;;5029813;28;20389;-62
2022/07/16 09:23:22;;;;;;;4.88;1.45;;;20.50;99.90;;;;;;5032175;28;20021;-62
2022/07/16 09:25:54;;;;;;;2.72;1.17;;;20.60;99.90;;;;;;5039274;28;20025;-62
2022/07/16 09:28:22;;;;;;;4.20;1.43;;;20.50;99.90;;;;;;5042683;28;20036;-62
2022/07/16 09:30:47;;;;;;;4.28;1.20;;;20.70;99.90;;;;;;5047686;28;20017;-62
2022/07/16 09:33:16;;;;;;;3.85;1.20;;;20.50;99.90;;;;;;5037373;28;20531;-62
2022/07/16 09:35:43;;;;;;;2.13;0.90;;;20.60;99.90;;;;;;5046654;28;20122;-62
2022/07/16 09:38:09;;;;;;;4.30;1.20;;;20.90;99.90;;;;;;5042302;28;20392;-62
2022/07/16 09:40:41;;;;;;;3.50;1.40;;;20.50;99.90;;;;;;5040045;28;20029;-62
2022/07/16 09:43:13;;;;;;;2.33;1.00;;;20.30;99.90;;;;;;5044128;28;20033;-62
2022/07/16 09:45:40;;;;;;;5.57;1.40;;;20.30;99.90;;;;;;5043898;28;20230;-64
2022/07/16 09:48:27;;;;;;;2.80;1.30;;;20.60;99.90;;;;;;5041050;28;20403;-63
2022/07/16 09:50:55;;;;;;;6.68;1.20;;;20.50;99.90;;;;;;5040556;28;20025;-63
2022/07/16 09:53:26;;;;;;;2.33;1.05;;;20.80;99.90;;;;;;5042840;28;20103;-64
2022/07/16 09:56:06;;;;;;;3.00;1.00;;;20.80;99.90;;;;;;5043336;28;20078;-64
2022/07/16 09:58:33;;;;;;;1.70;1.00;;;21.20;99.90;;;;;;5045789;28;20032;-64
2022/07/16 10:01:00;;;;;;;3.63;1.20;;;21.10;99.90;;;;;;5047839;28;20083;-63
2022/07/16 10:03:29;;;;;;;4.13;1.25;;;21.20;99.90;;;;;;5042912;28;20112;-64
2022/07/16 10:05:55;;;;;;;4.00;1.10;;;21.10;99.90;;;;;;5035589;28;20112;-63
2022/07/16 10:08:20;;;;;;;3.15;1.20;;;21.10;99.90;;;;;;5034357;28;20040;-63
2022/07/16 10:10:47;;;;;;;3.40;1.20;;;21.20;99.90;;;;;;5043426;28;20317;-64
2022/07/16 10:13:14;;;;;;;3.63;1.02;;;;;;;;;;5036494;28;20413;-64
2022/07/16 10:15:40;;;;;;;5.03;1.52;;;21.40;99.90;;;;;;5028313;28;20374;-63
2022/07/16 10:18:34;;;;;;;2.78;1.13;;;21.00;99.90;;;;;;5031417;28;20512;-64
2022/07/16 10:21:00;;;;;;;;;;;20.90;99.90;;;;;;5036483;28;20086;-64
2022/07/16 10:23:30;;;;;;;3.28;1.33;;;21.10;99.90;;;;;;5034972;28;19913;-64
2022/07/16 10:26:03;;;;;;;3.70;1.02;;;21.30;99.90;;;;;;5046061;28;20040;-63
2022/07/16 10:28:42;;;;;;;2.38;1.10;;;21.30;99.90;;;;;;5043832;28;20286;-63
2022/07/16 10:31:31;;;;;;;2.03;1.02;;;21.30;99.90;;;;;;5038130;28;20091;-63
2022/07/16 10:34:40;;;;;;;3.63;1.23;;;20.90;99.90;;;;;;5042876;28;20032;-63
2022/07/16 10:37:09;;;;;;;4.22;1.13;;;21.00;99.90;;;;;;5037513;28;20440;-63
2022/07/16 10:39:59;;;;;;;2.80;1.02;;;21.20;99.90;;;;;;5040798;28;20170;-64
2022/07/16 10:42:25;;;;;;;2.38;1.20;;;21.10;99.90;;;;;;5039029;28;20033;-63
2022/07/16 10:44:50;;;;;;;2.60;1.00;;;21.30;99.90;;;;;;5038967;28;20028;-63
2022/07/16 10:47:17;;;;;;;2.47;1.08;;;21.40;99.90;;;;;;5046380;28;20025;-63
2022/07/16 10:49:44;;;;;;;4.95;1.25;;;21.30;99.90;;;;;;5037861;28;20024;-63
2022/07/16 10:52:14;;;;;;;3.90;1.20;;;21.20;99.90;;;;;;5044898;28;20081;-63
2022/07/16 10:54:52;;;;;;;3.00;1.17;;;21.20;99.90;;;;;;5044730;28;20309;-64
2022/07/16 10:57:18;;;;;;;3.25;1.30;;;21.40;99.90;;;;;;5034143;28;20022;-63
2022/07/16 10:59:46;;;;;;;3.47;1.20;;;21.00;99.90;;;;;;5038018;28;20143;-63
2022/07/16 11:02:14;;;;;;;3.42;1.27;;;20.70;99.90;;;;;;5048940;28;20124;-63
2022/07/16 11:04:46;;;;;;;4.13;1.17;;;20.70;99.90;;;;;;5046001;28;20037;-64
2022/07/16 11:07:14;;;;;;;2.88;0.93;;;20.80;99.90;;;;;;5039029;28;20055;-64
2022/07/16 11:09:42;;;;;;;4.90;1.20;;;21.10;99.90;;;;;;5038589;28;20029;-64
2022/07/16 11:12:19;;;;;;;5.43;1.40;;;21.50;99.90;;;;;;5038794;28;20741;-64
2022/07/16 11:14:51;;;;;;;3.10;1.10;;;21.40;99.90;;;;;;5054342;28;20465;-64
2022/07/16 11:17:18;;;;;;;1.92;0.85;;;21.00;99.90;;;;;;5042543;28;20040;-64
2022/07/16 11:19:50;;;;;;;2.00;0.85;;;21.30;99.90;;;;;;5039457;28;20020;-64
2022/07/16 11:22:27;;;;;;;4.38;1.20;;;21.50;99.90;;;;;;5029044;28;20116;-64
2022/07/16 11:25:01;;;;;;;1.88;0.90;;;21.60;99.90;;;;;;5037767;28;20520;-65
2022/07/16 11:27:34;;;;;;;4.30;1.17;;;21.70;99.90;;;;;;5041425;28;20036;-64
2022/07/16 11:30:04;;;;;;;2.33;1.10;;;21.80;99.90;;;;;;5038874;28;20013;-63
2022/07/16 11:32:31;;;;;;;4.57;1.00;;;21.40;99.90;;;;;;5037227;28;20045;-64
2022/07/16 11:35:03;;;;;;;3.42;1.10;;;21.30;99.90;;;;;;5045534;28;20044;-64
2022/07/16 11:37:29;;;;;;;2.60;1.17;;;21.70;99.90;;;;;;5041943;28;20270;-64
2022/07/16 11:39:59;;;;;;;1.58;0.88;;;21.80;99.90;;;;;;5041503;28;20523;-64
2022/07/16 11:42:25;;;;;;;4.15;1.15;;;21.40;99.90;;;;;;5041009;28;20440;-64
2022/07/16 11:44:52;;;;;;;2.58;1.15;;;21.50;99.90;;;;;;5049682;28;20634;-63
2022/07/16 11:47:17;;;;;;;3.35;1.05;;;21.70;99.90;;;;;;5042663;28;20032;-63
2022/07/16 11:49:44;;;;;;;6.00;1.33;;;21.70;99.90;;;;;;5042774;28;20059;-63
2022/07/16 11:52:14;;;;;;;2.22;0.95;;;21.80;99.90;;;;;;5036919;28;20013;-64
2022/07/16 11:54:42;;;;;;;5.60;1.25;;;21.90;99.90;;;;;;5048260;28;20025;-63
2022/07/16 11:57:09;;;;;;;1.80;1.10;;;21.50;99.90;;;;;;5039346;28;20024;-64
2022/07/16 11:59:40;;;;;;;4.88;1.20;;;21.30;99.90;;;;;;5040062;28;20668;-64
2022/07/16 12:02:13;;;;;;;1.92;0.90;;;21.50;99.90;;;;;;5045613;28;20106;-63
2022/07/16 12:04:50;;;;;;;2.88;1.00;;;21.70;99.90;;;;;;5040784;28;20033;-64
2022/07/16 12:07:33;;;;;;;3.60;1.02;;;22.20;99.90;;;;;;5034435;28;20604;-64
2022/07/16 12:10:06;;;;;;;;;;;22.40;99.90;;;;;;5039445;28;20447;-63
2022/07/16 12:12:34;;;;;;;2.25;1.10;;;22.20;99.90;;;;;;5043979;28;19905;-64
2022/07/16 12:15:12;;;;;;;2.13;1.05;;;22.10;99.90;;;;;;5036445;28;20021;-64
2022/07/16 12:17:39;;;;;;;1.80;0.85;;;22.20;99.90;;;;;;5030076;28;20036;-64
2022/07/16 12:20:15;;;;;;;3.05;1.00;;;22.20;99.90;;;;;;5039725;28;20511;-64
2022/07/16 12:22:58;;;;;;;2.47;1.02;;;22.20;99.90;;;;;;5041195;28;20564;-63
2022/07/16 12:25:36;;;;;;;5.47;1.05;;;22.20;99.90;;;;;;5033025;28;20025;-63
2022/07/16 12:28:28;;;;;;;2.42;1.08;;;22.00;99.90;;;;;;5040532;28;20044;-63
2022/07/16 12:30:55;;;;;;;2.63;1.08;;;21.90;99.90;;;;;;5038363;28;20037;-63
2022/07/16 12:33:21;;;;;;;1.77;0.98;;;22.10;99.90;;;;;;5038117;28;20040;-63
2022/07/16 12:35:48;;;;;;;3.45;0.88;;;22.30;99.90;;;;;;5043441;28;20041;-65
2022/07/16 12:38:53;;;;;;;3.75;1.10;;;22.10;99.90;;;;;;5038664;28;20036;-64
2022/07/16 12:41:37;;;;;;;1.52;0.85;;;22.20;99.90;;;;;;5040639;28;20029;-64
2022/07/16 12:44:06;;;;;;;4.43;1.20;;;21.90;99.90;;;;;;5033716;28;20028;-64
2022/07/16 12:46:35;;;;;;;3.45;1.00;;;22.20;99.90;;;;;;5044671;28;20052;-64
2022/07/16 12:49:06;;;;;;;5.93;2.75;;;22.40;99.90;;;;;;5037084;28;20068;-64
2022/07/16 12:51:34;;;;;;;5.25;1.00;;;22.40;99.90;;;;;;5036983;28;20025;-65
2022/07/16 12:54:01;;;;;;;5.43;1.17;;;22.40;99.90;;;;;;5035901;28;20021;-65